createdAt,value
2018-08-24T00:00:34.361Z,7.8
2018-08-24T00:01:35.835Z,7.8
2018-08-24T00:02:37.453Z,7.8
2018-08-24T00:03:38.892Z,7.8
2018-08-24T00:04:40.338Z,7.8
2018-08-24T00:05:41.950Z,7.8
2018-08-24T00:06:43.573Z,7.8
2018-08-24T00:07:45.181Z,7.8
2018-08-24T00:08:46.458Z,7.8
2018-08-24T00:09:47.929Z,7.8
2018-08-24T00:10:49.388Z,7.8
2018-08-24T00:11:50.991Z,7.8
2018-08-24T00:12:52.414Z,7.8
2018-08-24T00:13:54.019Z,7.8
2018-08-24T00:14:55.454Z,7.8
2018-08-24T00:15:56.895Z,7.8
2018-08-24T00:16:58.496Z,7.8
2018-08-24T00:17:59.785Z,7.8
2018-08-24T00:19:01.231Z,7.8
2018-08-24T00:20:02.873Z,7.8
2018-08-24T00:21:04.295Z,7.8
2018-08-24T00:22:05.577Z,7.8
2018-08-24T00:23:07.027Z,7.8
2018-08-24T00:24:08.123Z,7.8
2018-08-24T00:25:09.411Z,7.8
2018-08-24T00:26:11.048Z,7.8
2018-08-24T00:27:12.493Z,7.8
2018-08-24T00:28:14.107Z,7.8
2018-08-24T00:29:15.693Z,7.8
2018-08-24T00:30:17.325Z,7.8
2018-08-24T00:31:18.766Z,7.8
2018-08-24T00:32:20.254Z,7.8
2018-08-24T00:33:21.555Z,7.8
2018-08-24T00:34:23.007Z,7.8
2018-08-24T00:35:24.618Z,7.8
2018-08-24T00:36:26.228Z,7.8
2018-08-24T00:37:27.525Z,7.8
2018-08-24T00:38:29.145Z,7.8
2018-08-24T00:39:30.775Z,7.8
2018-08-24T00:40:32.384Z,7.8
2018-08-24T00:41:33.481Z,7.8
2018-08-24T00:42:35.438Z,7.8
2018-08-24T00:43:36.896Z,7.8
2018-08-24T00:44:38.482Z,7.8
2018-08-24T00:45:40.099Z,7.8
2018-08-24T00:46:41.541Z,7.8
2018-08-24T00:47:43.158Z,7.8
2018-08-24T00:48:44.602Z,7.8
2018-08-24T00:49:46.200Z,7.8
2018-08-24T00:50:47.650Z,7.8
2018-08-24T00:51:49.119Z,7.8
2018-08-24T00:52:50.566Z,7.8
2018-08-24T00:53:52.037Z,7.8
2018-08-24T00:54:53.332Z,7.8
2018-08-24T00:55:54.942Z,7.8
2018-08-24T00:56:56.380Z,7.8
2018-08-24T00:57:57.817Z,7.8
2018-08-24T00:58:59.436Z,7.8
2018-08-24T01:00:01.108Z,7.8
2018-08-24T01:01:02.489Z,7.8
2018-08-24T01:02:04.111Z,7.8
2018-08-24T01:03:05.720Z,7.8
2018-08-24T01:04:07.161Z,7.8
2018-08-24T01:05:08.632Z,7.8
2018-08-24T01:06:10.097Z,7.8
2018-08-24T01:07:11.577Z,7.8
2018-08-24T01:08:13.211Z,7.8
2018-08-24T01:09:14.669Z,7.8
2018-08-24T01:10:16.289Z,7.8
2018-08-24T01:11:17.752Z,7.8
2018-08-24T01:12:19.379Z,7.8
2018-08-24T01:13:20.822Z,7.8
2018-08-24T01:14:22.455Z,7.8
2018-08-24T01:15:23.898Z,7.8
2018-08-24T01:16:25.499Z,7.8
2018-08-24T01:17:26.935Z,7.7
2018-08-24T01:18:28.555Z,7.7
2018-08-24T01:19:29.990Z,7.7
2018-08-24T01:20:31.636Z,7.6
2018-08-24T01:21:32.916Z,7.5
2018-08-24T01:22:34.349Z,7.4
2018-08-24T01:23:35.936Z,7.3
2018-08-24T01:24:37.353Z,7.2
2018-08-24T01:25:38.964Z,7.2
2018-08-24T01:26:40.600Z,7.2
2018-08-24T01:27:42.208Z,7.2
2018-08-24T01:28:43.639Z,7.2
2018-08-24T01:29:45.070Z,7.2
2018-08-24T01:30:46.498Z,7.2
2018-08-24T01:31:48.112Z,7.2
2018-08-24T01:32:49.566Z,7.2
2018-08-24T01:33:51.169Z,7.2
2018-08-24T01:34:52.616Z,7.2
2018-08-24T01:35:54.051Z,7.2
2018-08-24T01:36:55.491Z,7.2
2018-08-24T01:37:56.930Z,7.2
2018-08-24T01:38:58.378Z,7.2
2018-08-24T01:39:59.983Z,7.2
2018-08-24T01:41:01.598Z,7.2
2018-08-24T01:42:03.236Z,7.2
2018-08-24T01:43:04.869Z,7.2
2018-08-24T01:44:06.486Z,7.2
2018-08-24T01:45:08.085Z,7.2
2018-08-24T01:46:09.686Z,7.2
2018-08-24T01:47:11.293Z,7.2
2018-08-24T01:48:12.591Z,7.2
2018-08-24T01:49:14.046Z,7.2
2018-08-24T01:50:15.503Z,7.2
2018-08-24T01:51:17.119Z,7.2
2018-08-24T01:52:18.712Z,7.2
2018-08-24T01:53:19.999Z,7.2
2018-08-24T01:54:21.619Z,7.2
2018-08-24T01:55:23.236Z,7.2
2018-08-24T01:56:24.683Z,7.2
2018-08-24T01:57:26.282Z,7.2
2018-08-24T01:58:27.876Z,7.2
2018-08-24T01:59:29.491Z,7.2
2018-08-24T02:00:31.121Z,7.2
2018-08-24T02:01:32.247Z,7.2
2018-08-24T02:02:33.859Z,7.2
2018-08-24T02:03:35.472Z,7.2
2018-08-24T02:04:36.925Z,7.2
2018-08-24T02:05:38.526Z,7.2
2018-08-24T02:06:39.957Z,7.2
2018-08-24T02:07:41.560Z,7.2
2018-08-24T02:08:43.018Z,7.2
2018-08-24T02:09:44.633Z,7.2
2018-08-24T02:10:46.253Z,7.2
2018-08-24T02:11:47.877Z,7.2
2018-08-24T02:12:49.487Z,7.2
2018-08-24T02:13:50.930Z,7.2
2018-08-24T02:14:52.535Z,7.2
2018-08-24T02:15:54.157Z,7.2
2018-08-24T02:16:55.760Z,7.2
2018-08-24T02:17:57.206Z,7.3
2018-08-24T02:18:58.808Z,7.3
2018-08-24T02:20:00.242Z,7.3
2018-08-24T02:21:01.835Z,7.3
2018-08-24T02:22:03.436Z,7.3
2018-08-24T02:23:04.889Z,7.3
2018-08-24T02:24:06.493Z,7.4
2018-08-24T02:25:08.109Z,7.4
2018-08-24T02:26:09.715Z,7.4
2018-08-24T02:27:11.318Z,7.5
2018-08-24T02:28:12.915Z,7.5
2018-08-24T02:29:14.363Z,7.5
2018-08-24T02:30:15.977Z,7.6
2018-08-24T02:31:18.325Z,7.6
2018-08-24T02:32:20.019Z,7.6
2018-08-24T02:33:21.463Z,7.7
2018-08-24T02:34:23.070Z,7.7
2018-08-24T02:35:24.684Z,7.7
2018-08-24T02:36:25.972Z,7.8
2018-08-24T02:37:27.581Z,7.8
2018-08-24T02:38:29.198Z,7.8
2018-08-24T02:39:30.817Z,7.8
2018-08-24T02:40:31.908Z,7.8
2018-08-24T02:41:33.354Z,7.8
2018-08-24T02:42:34.973Z,7.8
2018-08-24T02:43:36.255Z,7.8
2018-08-24T02:44:37.872Z,7.8
2018-08-24T02:45:39.317Z,7.8
2018-08-24T02:46:40.592Z,7.8
2018-08-24T02:47:42.040Z,7.8
2018-08-24T02:48:43.651Z,7.8
2018-08-24T02:49:45.259Z,7.8
2018-08-24T02:50:46.557Z,7.8
2018-08-24T02:51:48.011Z,7.8
2018-08-24T02:52:49.636Z,7.8
2018-08-24T02:53:50.929Z,7.8
2018-08-24T02:54:52.420Z,7.8
2018-08-24T02:55:53.682Z,7.8
2018-08-24T02:56:55.290Z,7.8
2018-08-24T02:57:56.896Z,7.8
2018-08-24T02:58:58.536Z,7.8
2018-08-24T03:00:00.032Z,7.8
2018-08-24T03:01:01.685Z,7.8
2018-08-24T03:02:03.115Z,7.8
2018-08-24T03:03:04.741Z,7.8
2018-08-24T03:04:06.029Z,7.8
2018-08-24T03:05:08.162Z,7.8
2018-08-24T03:06:09.850Z,7.8
2018-08-24T03:07:11.440Z,7.8
2018-08-24T03:08:13.269Z,7.8
2018-08-24T03:09:14.720Z,7.8
2018-08-24T03:10:16.329Z,7.8
2018-08-24T03:11:17.754Z,7.8
2018-08-24T03:12:19.360Z,7.8
2018-08-24T03:13:20.974Z,7.8
2018-08-24T03:14:22.390Z,7.8
2018-08-24T03:15:24.005Z,7.8
2018-08-24T03:16:26.412Z,7.8
2018-08-24T03:17:27.941Z,7.8
2018-08-24T03:18:29.384Z,7.8
2018-08-24T03:19:31.003Z,7.8
2018-08-24T03:20:32.617Z,7.8
2018-08-24T03:21:34.221Z,7.8
2018-08-24T03:22:35.488Z,7.8
2018-08-24T03:23:37.116Z,7.8
2018-08-24T03:24:38.750Z,7.8
2018-08-24T03:25:40.189Z,7.8
2018-08-24T03:26:41.789Z,7.7
2018-08-24T03:27:43.241Z,7.7
2018-08-24T03:28:44.837Z,7.6
2018-08-24T03:29:46.434Z,7.5
2018-08-24T03:30:48.075Z,7.4
2018-08-24T03:31:49.946Z,7.4
2018-08-24T03:32:51.438Z,7.3
2018-08-24T03:33:53.062Z,7.2
2018-08-24T03:34:54.510Z,7.2
2018-08-24T03:35:56.102Z,7.2
2018-08-24T03:36:57.747Z,7.2
2018-08-24T03:37:59.369Z,7.2
2018-08-24T03:39:00.810Z,7.2
2018-08-24T03:40:02.453Z,7.2
2018-08-24T03:41:04.136Z,7.2
2018-08-24T03:42:05.754Z,7.2
2018-08-24T03:43:06.876Z,7.2
2018-08-24T03:44:08.470Z,7.2
2018-08-24T03:45:10.660Z,7.2
2018-08-24T03:46:12.233Z,7.2
2018-08-24T03:47:13.737Z,7.2
2018-08-24T03:48:15.237Z,7.2
2018-08-24T03:49:16.879Z,7.2
2018-08-24T03:50:18.348Z,7.2
2018-08-24T03:51:20.018Z,7.2
2018-08-24T03:52:21.468Z,7.2
2018-08-24T03:53:24.047Z,7.2
2018-08-24T03:54:25.821Z,7.2
2018-08-24T03:55:27.446Z,7.2
2018-08-24T03:56:28.751Z,7.2
2018-08-24T03:57:30.208Z,7.2
2018-08-24T03:58:31.823Z,7.3
2018-08-24T03:59:33.439Z,7.2
2018-08-24T04:00:34.891Z,7.3
2018-08-24T04:01:36.164Z,7.3
2018-08-24T04:02:37.594Z,7.3
2018-08-24T04:03:38.898Z,7.3
2018-08-24T04:04:40.512Z,7.3
2018-08-24T04:05:42.110Z,7.3
2018-08-24T04:06:43.580Z,7.3
2018-08-24T04:07:45.019Z,7.3
2018-08-24T04:08:46.643Z,7.3
2018-08-24T04:09:48.259Z,7.4
2018-08-24T04:10:49.854Z,7.4
2018-08-24T04:11:51.475Z,7.4
2018-08-24T04:12:53.765Z,7.4
2018-08-24T04:13:55.442Z,7.5
2018-08-24T04:14:57.059Z,7.5
2018-08-24T04:15:58.515Z,7.5
2018-08-24T04:17:00.129Z,7.6
2018-08-24T04:18:01.719Z,7.6
2018-08-24T04:19:03.000Z,7.7
2018-08-24T04:20:04.589Z,7.7
2018-08-24T04:21:06.017Z,7.7
2018-08-24T04:22:07.455Z,7.7
2018-08-24T04:23:08.909Z,7.8
2018-08-24T04:24:10.219Z,7.8
2018-08-24T04:25:11.806Z,7.8
2018-08-24T04:26:13.815Z,7.8
2018-08-24T04:27:15.277Z,7.8
2018-08-24T04:28:16.728Z,7.8
2018-08-24T04:29:18.352Z,7.8
2018-08-24T04:30:19.961Z,7.8
2018-08-24T04:31:21.252Z,7.8
2018-08-24T04:32:22.521Z,7.8
2018-08-24T04:33:23.966Z,7.8
2018-08-24T04:34:25.424Z,7.8
2018-08-24T04:35:27.057Z,7.8
2018-08-24T04:36:28.657Z,7.8
2018-08-24T04:37:30.291Z,7.8
2018-08-24T04:38:31.730Z,7.8
2018-08-24T04:39:33.200Z,7.9
2018-08-24T04:40:34.844Z,7.8
2018-08-24T04:41:36.152Z,7.8
2018-08-24T04:42:37.773Z,7.9
2018-08-24T04:43:39.366Z,7.9
2018-08-24T04:44:40.976Z,7.9
2018-08-24T04:45:43.311Z,7.8
2018-08-24T04:46:44.755Z,7.8
2018-08-24T04:47:46.393Z,7.9
2018-08-24T04:48:47.856Z,7.8
2018-08-24T04:49:49.304Z,7.8
2018-08-24T04:50:50.901Z,7.8
2018-08-24T04:51:52.369Z,7.9
2018-08-24T04:52:53.801Z,7.9
2018-08-24T04:53:55.245Z,7.8
2018-08-24T04:54:56.845Z,7.9
2018-08-24T04:55:58.469Z,7.8
2018-08-24T04:57:00.117Z,7.8
2018-08-24T04:58:01.729Z,7.9
2018-08-24T04:59:03.042Z,7.9
2018-08-24T05:00:04.686Z,7.8
2018-08-24T05:01:05.970Z,7.8
2018-08-24T05:02:07.585Z,7.8
2018-08-24T05:03:09.222Z,7.8
2018-08-24T05:04:10.884Z,7.8
2018-08-24T05:05:12.483Z,7.8
2018-08-24T05:06:13.945Z,7.8
2018-08-24T05:07:15.235Z,7.8
2018-08-24T05:08:16.847Z,7.8
2018-08-24T05:09:18.296Z,7.8
2018-08-24T05:10:19.894Z,7.9
2018-08-24T05:11:21.199Z,7.8
2018-08-24T05:12:22.825Z,7.8
2018-08-24T05:13:24.428Z,7.8
2018-08-24T05:14:25.857Z,7.8
2018-08-24T05:15:27.309Z,7.8
2018-08-24T05:16:28.769Z,7.8
2018-08-24T05:17:30.400Z,7.8
2018-08-24T05:18:32.007Z,7.8
2018-08-24T05:19:33.604Z,7.8
2018-08-24T05:20:35.256Z,7.8
2018-08-24T05:21:36.526Z,7.8
2018-08-24T05:22:38.185Z,7.8
2018-08-24T05:23:39.637Z,7.8
2018-08-24T05:24:41.520Z,7.8
2018-08-24T05:25:43.144Z,7.8
2018-08-24T05:26:44.437Z,7.8
2018-08-24T05:27:46.045Z,7.7
2018-08-24T05:28:47.676Z,7.7
2018-08-24T05:29:49.139Z,7.7
2018-08-24T05:30:50.425Z,7.6
2018-08-24T05:31:52.044Z,7.5
2018-08-24T05:32:53.176Z,7.5
2018-08-24T05:33:54.449Z,7.4
2018-08-24T05:34:55.724Z,7.3
2018-08-24T05:35:57.155Z,7.2
2018-08-24T05:36:58.772Z,7.2
2018-08-24T05:37:59.878Z,7.2
2018-08-24T05:39:01.337Z,7.2
2018-08-24T05:40:02.782Z,7.2
2018-08-24T05:41:04.215Z,7.2
2018-08-24T05:42:05.827Z,7.2
2018-08-24T05:43:07.108Z,7.2
2018-08-24T05:44:08.745Z,7.2
2018-08-24T05:45:10.342Z,7.2
2018-08-24T05:46:11.940Z,7.2
2018-08-24T05:47:13.571Z,7.2
2018-08-24T05:48:15.177Z,7.2
2018-08-24T05:49:16.794Z,7.2
2018-08-24T05:50:18.237Z,7.2
2018-08-24T05:51:19.848Z,7.2
2018-08-24T05:52:21.305Z,7.2
2018-08-24T05:53:22.785Z,7.2
2018-08-24T05:54:24.410Z,7.2
2018-08-24T05:55:25.860Z,7.2
2018-08-24T05:56:27.470Z,7.2
2018-08-24T05:57:29.099Z,7.2
2018-08-24T05:58:30.376Z,7.2
2018-08-24T05:59:32.006Z,7.2
2018-08-24T06:00:33.303Z,7.2
2018-08-24T06:01:34.586Z,7.2
2018-08-24T06:02:36.215Z,7.2
2018-08-24T06:03:37.832Z,7.2
2018-08-24T06:04:39.464Z,7.2
2018-08-24T06:05:41.447Z,7.2
2018-08-24T06:06:42.928Z,7.2
2018-08-24T06:07:44.525Z,7.2
2018-08-24T06:08:46.165Z,7.2
2018-08-24T06:09:47.446Z,7.2
2018-08-24T06:10:48.746Z,7.2
2018-08-24T06:11:50.185Z,7.3
2018-08-24T06:12:51.635Z,7.3
2018-08-24T06:13:52.895Z,7.3
2018-08-24T06:14:54.157Z,7.3
2018-08-24T06:15:56.434Z,7.4
2018-08-24T06:16:58.148Z,7.4
2018-08-24T06:17:59.773Z,7.4
2018-08-24T06:19:01.395Z,7.5
2018-08-24T06:20:03.051Z,7.5
2018-08-24T06:21:04.700Z,7.6
2018-08-24T06:22:06.151Z,7.6
2018-08-24T06:23:07.591Z,7.7
2018-08-24T06:24:08.873Z,7.7
2018-08-24T06:25:10.327Z,7.8
2018-08-24T06:26:11.959Z,7.8
2018-08-24T06:27:13.401Z,7.8
2018-08-24T06:28:14.888Z,7.8
2018-08-24T06:29:16.344Z,7.9
2018-08-24T06:30:17.992Z,7.8
2018-08-24T06:31:19.622Z,7.8
2018-08-24T06:32:21.105Z,7.8
2018-08-24T06:33:22.740Z,7.8
2018-08-24T06:34:24.369Z,7.9
2018-08-24T06:35:25.986Z,7.9
2018-08-24T06:36:27.609Z,7.9
2018-08-24T06:37:29.275Z,7.9
2018-08-24T06:38:30.764Z,7.9
2018-08-24T06:39:32.216Z,7.9
2018-08-24T06:40:33.842Z,7.9
2018-08-24T06:41:35.441Z,7.9
2018-08-24T06:42:36.887Z,7.9
2018-08-24T06:43:38.173Z,7.9
2018-08-24T06:44:39.792Z,7.9
2018-08-24T06:45:41.227Z,7.9
2018-08-24T06:46:42.851Z,7.9
2018-08-24T06:47:45.234Z,7.9
2018-08-24T06:48:46.918Z,7.9
2018-08-24T06:49:48.529Z,7.9
2018-08-24T06:50:49.973Z,7.9
2018-08-24T06:51:51.606Z,7.9
2018-08-24T06:52:53.260Z,7.9
2018-08-24T06:53:55.507Z,7.9
2018-08-24T06:54:56.959Z,7.9
2018-08-24T06:55:58.632Z,7.9
2018-08-24T06:57:00.262Z,7.9
2018-08-24T06:58:01.709Z,7.9
2018-08-24T06:59:03.176Z,7.9
2018-08-24T07:00:04.778Z,7.9
2018-08-24T07:01:06.234Z,7.9
2018-08-24T07:02:07.501Z,7.9
2018-08-24T07:03:09.130Z,7.9
2018-08-24T07:04:10.755Z,7.8
2018-08-24T07:05:12.202Z,7.8
2018-08-24T07:06:13.818Z,7.8
2018-08-24T07:07:15.286Z,7.8
2018-08-24T07:08:16.916Z,7.8
2018-08-24T07:09:18.540Z,7.8
2018-08-24T07:10:20.000Z,7.8
2018-08-24T07:11:21.614Z,7.9
2018-08-24T07:12:23.237Z,7.9
2018-08-24T07:13:24.837Z,7.9
2018-08-24T07:14:26.477Z,7.9
2018-08-24T07:15:28.125Z,7.9
2018-08-24T07:16:29.725Z,7.9
2018-08-24T07:17:31.011Z,7.9
2018-08-24T07:18:32.623Z,7.8
2018-08-24T07:19:34.236Z,7.9
2018-08-24T07:20:35.695Z,7.8
2018-08-24T07:21:37.146Z,7.8
2018-08-24T07:22:38.776Z,7.8
2018-08-24T07:23:40.222Z,7.8
2018-08-24T07:24:41.694Z,7.8
2018-08-24T07:25:42.961Z,7.8
2018-08-24T07:26:44.253Z,7.8
2018-08-24T07:27:45.881Z,7.8
2018-08-24T07:28:47.331Z,7.8
2018-08-24T07:29:48.959Z,7.8
2018-08-24T07:30:50.560Z,7.8
2018-08-24T07:31:52.179Z,7.8
2018-08-24T07:32:53.830Z,7.7
2018-08-24T07:33:55.308Z,7.7
2018-08-24T07:34:56.630Z,7.7
2018-08-24T07:35:58.213Z,7.6
2018-08-24T07:36:59.679Z,7.5
2018-08-24T07:38:01.303Z,7.5
2018-08-24T07:39:02.763Z,7.4
2018-08-24T07:40:04.209Z,7.3
2018-08-24T07:41:05.825Z,7.2
2018-08-24T07:42:07.135Z,7.2
2018-08-24T07:43:08.602Z,7.2
2018-08-24T07:44:10.200Z,7.2
2018-08-24T07:45:12.109Z,7.2
2018-08-24T07:46:13.833Z,7.2
2018-08-24T07:47:15.494Z,7.2
2018-08-24T07:48:16.944Z,7.2
2018-08-24T07:49:18.391Z,7.2
2018-08-24T07:50:20.016Z,7.2
2018-08-24T07:51:21.442Z,7.2
2018-08-24T07:52:22.941Z,7.2
2018-08-24T07:53:24.531Z,7.2
2018-08-24T07:54:25.992Z,7.2
2018-08-24T07:55:27.653Z,7.2
2018-08-24T07:56:29.487Z,7.2
2018-08-24T07:57:31.147Z,7.2
2018-08-24T07:58:32.581Z,7.2
2018-08-24T07:59:33.869Z,7.2
2018-08-24T08:00:35.330Z,7.2
2018-08-24T08:01:36.774Z,7.2
2018-08-24T08:02:38.227Z,7.2
2018-08-24T08:03:39.838Z,7.2
2018-08-24T08:04:41.285Z,7.2
2018-08-24T08:05:42.732Z,7.2
2018-08-24T08:06:44.328Z,7.2
2018-08-24T08:07:45.905Z,7.2
2018-08-24T08:08:47.553Z,7.2
2018-08-24T08:09:49.168Z,7.2
2018-08-24T08:10:50.784Z,7.2
2018-08-24T08:11:52.378Z,7.2
2018-08-24T08:12:54.008Z,7.3
2018-08-24T08:13:55.485Z,7.3
2018-08-24T08:14:57.098Z,7.3
2018-08-24T08:15:58.553Z,7.3
2018-08-24T08:17:00.164Z,7.3
2018-08-24T08:18:01.855Z,7.3
2018-08-24T08:19:03.489Z,7.4
2018-08-24T08:20:04.935Z,7.4
2018-08-24T08:21:06.563Z,7.5
2018-08-24T08:22:08.047Z,7.5
2018-08-24T08:23:09.519Z,7.5
2018-08-24T08:24:11.123Z,7.6
2018-08-24T08:25:12.609Z,7.6
2018-08-24T08:26:13.876Z,7.6
2018-08-24T08:27:15.479Z,7.6
2018-08-24T08:28:16.935Z,7.7
2018-08-24T08:29:18.368Z,7.7
2018-08-24T08:30:19.826Z,7.7
2018-08-24T08:31:21.461Z,7.7
2018-08-24T08:32:22.916Z,7.7
2018-08-24T08:33:24.522Z,7.7
2018-08-24T08:34:26.126Z,7.7
2018-08-24T08:35:27.765Z,7.7
2018-08-24T08:36:29.197Z,7.7
2018-08-24T08:37:30.832Z,7.7
2018-08-24T08:38:32.288Z,7.7
2018-08-24T08:39:33.592Z,7.7
2018-08-24T08:40:35.232Z,7.7
2018-08-24T08:41:36.858Z,7.7
2018-08-24T08:42:38.136Z,7.7
2018-08-24T08:43:39.741Z,7.7
2018-08-24T08:44:41.208Z,7.7
2018-08-24T08:45:42.658Z,7.8
2018-08-24T08:46:44.297Z,7.8
2018-08-24T08:47:45.778Z,7.8
2018-08-24T08:48:47.386Z,7.8
2018-08-24T08:49:48.999Z,7.8
2018-08-24T08:50:50.443Z,7.8
2018-08-24T08:51:51.890Z,7.8
2018-08-24T08:52:53.533Z,7.8
2018-08-24T08:53:55.177Z,7.8
2018-08-24T08:54:56.687Z,7.8
2018-08-24T08:55:58.117Z,7.8
2018-08-24T08:56:59.720Z,7.8
2018-08-24T08:58:01.327Z,7.8
2018-08-24T08:59:02.775Z,7.8
2018-08-24T09:00:04.215Z,7.8
2018-08-24T09:01:05.814Z,7.8
2018-08-24T09:02:07.088Z,7.9
2018-08-24T09:03:08.532Z,7.9
2018-08-24T09:04:09.986Z,7.8
2018-08-24T09:05:11.595Z,7.9
2018-08-24T09:06:14.440Z,7.8
2018-08-24T09:07:16.096Z,7.8
2018-08-24T09:08:17.571Z,7.9
2018-08-24T09:09:18.863Z,7.9
2018-08-24T09:10:20.465Z,7.9
2018-08-24T09:11:22.089Z,7.9
2018-08-24T09:12:23.562Z,7.9
2018-08-24T09:13:25.017Z,7.9
2018-08-24T09:14:26.693Z,7.8
2018-08-24T09:15:28.293Z,7.9
2018-08-24T09:16:29.744Z,7.9
2018-08-24T09:17:31.222Z,7.9
2018-08-24T09:18:33.463Z,7.9
2018-08-24T09:19:35.181Z,7.9
2018-08-24T09:20:36.797Z,7.9
2018-08-24T09:21:38.386Z,7.9
2018-08-24T09:22:39.822Z,7.9
2018-08-24T09:23:41.117Z,7.9
2018-08-24T09:24:42.733Z,7.8
2018-08-24T09:25:45.139Z,7.8
2018-08-24T09:26:46.790Z,7.8
2018-08-24T09:27:48.418Z,7.8
2018-08-24T09:28:50.008Z,7.8
2018-08-24T09:29:51.527Z,7.8
2018-08-24T09:30:52.987Z,7.7
2018-08-24T09:31:54.619Z,7.7
2018-08-24T09:32:56.965Z,7.7
2018-08-24T09:33:58.659Z,7.6
2018-08-24T09:35:00.310Z,7.6
2018-08-24T09:36:01.932Z,7.5
2018-08-24T09:37:03.367Z,7.4
2018-08-24T09:38:05.275Z,7.4
2018-08-24T09:39:06.908Z,7.3
2018-08-24T09:40:08.377Z,7.2
2018-08-24T09:41:09.813Z,7.2
2018-08-24T09:42:11.440Z,7.2
2018-08-24T09:43:13.698Z,7.2
2018-08-24T09:44:15.169Z,7.2
2018-08-24T09:45:16.764Z,7.2
2018-08-24T09:46:18.397Z,7.2
2018-08-24T09:47:20.006Z,7.2
2018-08-24T09:48:21.658Z,7.2
2018-08-24T09:49:23.267Z,7.2
2018-08-24T09:50:24.571Z,7.2
2018-08-24T09:51:26.201Z,7.2
2018-08-24T09:52:27.816Z,7.2
2018-08-24T09:53:29.431Z,7.2
2018-08-24T09:54:31.057Z,7.2
2018-08-24T09:55:32.369Z,7.2
2018-08-24T09:56:33.904Z,7.2
2018-08-24T09:57:35.345Z,7.2
2018-08-24T09:58:36.983Z,7.2
2018-08-24T09:59:38.607Z,7.2
2018-08-24T10:00:40.210Z,7.2
2018-08-24T10:01:41.865Z,7.2
2018-08-24T10:02:43.644Z,7.2
2018-08-24T10:03:45.166Z,7.2
2018-08-24T10:04:46.611Z,7.3
2018-08-24T10:05:48.057Z,7.3
2018-08-24T10:06:50.713Z,7.3
2018-08-24T10:07:52.196Z,7.3
2018-08-24T10:08:53.821Z,7.3
2018-08-24T10:09:55.285Z,7.3
2018-08-24T10:10:56.764Z,7.3
2018-08-24T10:11:58.401Z,7.3
2018-08-24T10:12:59.862Z,7.3
2018-08-24T10:14:01.486Z,7.3
2018-08-24T10:15:03.127Z,7.3
2018-08-24T10:16:04.777Z,7.3
2018-08-24T10:17:06.447Z,7.4
2018-08-24T10:18:07.911Z,7.4
2018-08-24T10:19:09.552Z,7.4
2018-08-24T10:20:11.009Z,7.4
2018-08-24T10:21:12.611Z,7.5
2018-08-24T10:22:14.078Z,7.5
2018-08-24T10:23:16.097Z,7.5
2018-08-24T10:24:17.545Z,7.5
2018-08-24T10:25:19.009Z,7.6
2018-08-24T10:26:20.451Z,7.6
2018-08-24T10:27:21.910Z,7.6
2018-08-24T10:28:23.352Z,7.7
2018-08-24T10:29:24.783Z,7.7
2018-08-24T10:30:26.479Z,7.7
2018-08-24T10:31:28.083Z,7.8
2018-08-24T10:32:29.710Z,7.8
2018-08-24T10:33:31.321Z,7.8
2018-08-24T10:34:33.006Z,7.8
2018-08-24T10:35:34.452Z,7.8
2018-08-24T10:36:35.906Z,7.8
2018-08-24T10:37:37.357Z,7.8
2018-08-24T10:38:38.798Z,7.8
2018-08-24T10:39:40.415Z,7.8
2018-08-24T10:40:41.854Z,7.8
2018-08-24T10:41:43.326Z,7.8
2018-08-24T10:42:45.275Z,7.8
2018-08-24T10:43:46.734Z,7.8
2018-08-24T10:44:48.022Z,7.8
2018-08-24T10:45:49.451Z,7.8
2018-08-24T10:46:50.928Z,7.9
2018-08-24T10:47:52.609Z,7.9
2018-08-24T10:48:54.207Z,7.9
2018-08-24T10:49:55.669Z,7.9
2018-08-24T10:50:57.092Z,7.9
2018-08-24T10:51:58.936Z,7.9
2018-08-24T10:53:00.412Z,7.9
2018-08-24T10:54:02.041Z,7.9
2018-08-24T10:55:04.102Z,7.9
2018-08-24T10:56:05.970Z,7.9
2018-08-24T10:57:07.453Z,7.9
2018-08-24T10:58:08.909Z,7.9
2018-08-24T10:59:10.544Z,7.9
2018-08-24T11:00:11.999Z,7.9
2018-08-24T11:01:13.630Z,7.9
2018-08-24T11:02:15.422Z,7.9
2018-08-24T11:03:17.072Z,7.8
2018-08-24T11:04:18.525Z,7.8
2018-08-24T11:05:20.265Z,7.8
2018-08-24T11:06:21.946Z,7.8
2018-08-24T11:07:24.561Z,7.8
2018-08-24T11:08:26.287Z,7.8
2018-08-24T11:09:27.918Z,7.8
2018-08-24T11:10:29.520Z,7.8
2018-08-24T11:11:31.149Z,7.8
2018-08-24T11:12:32.604Z,7.8
2018-08-24T11:13:34.058Z,7.8
2018-08-24T11:14:35.689Z,7.8
2018-08-24T11:15:37.186Z,7.8
2018-08-24T11:16:38.777Z,7.8
2018-08-24T11:17:40.407Z,7.8
2018-08-24T11:18:42.098Z,7.8
2018-08-24T11:19:43.711Z,7.8
2018-08-24T11:20:45.172Z,7.8
2018-08-24T11:21:46.795Z,7.8
2018-08-24T11:22:48.422Z,7.8
2018-08-24T11:23:50.020Z,7.8
2018-08-24T11:24:51.644Z,7.8
2018-08-24T11:25:53.261Z,7.8
2018-08-24T11:26:55.630Z,7.8
2018-08-24T11:27:57.275Z,7.7
2018-08-24T11:28:58.542Z,7.7
2018-08-24T11:29:59.986Z,7.6
2018-08-24T11:31:01.437Z,7.6
2018-08-24T11:32:03.063Z,7.5
2018-08-24T11:33:04.846Z,7.4
2018-08-24T11:34:07.232Z,7.3
2018-08-24T11:35:08.944Z,7.2
2018-08-24T11:36:11.728Z,7.2
2018-08-24T11:37:13.225Z,7.2
2018-08-24T11:38:14.827Z,7.2
2018-08-24T11:39:16.465Z,7.2
2018-08-24T11:40:17.935Z,7.2
2018-08-24T11:41:19.556Z,7.2
2018-08-24T11:42:21.260Z,7.2
2018-08-24T11:43:22.883Z,7.2
2018-08-24T11:44:24.186Z,7.2
2018-08-24T11:45:25.483Z,7.2
2018-08-24T11:46:27.113Z,7.2
2018-08-24T11:47:28.557Z,7.2
2018-08-24T11:48:30.153Z,7.2
2018-08-24T11:49:31.587Z,7.2
2018-08-24T11:50:33.202Z,7.2
2018-08-24T11:51:34.483Z,7.2
2018-08-24T11:52:35.928Z,7.2
2018-08-24T11:53:37.400Z,7.2
2018-08-24T11:54:39.434Z,7.2
2018-08-24T11:55:40.886Z,7.2
2018-08-24T11:56:42.537Z,7.2
2018-08-24T11:57:44.171Z,7.2
2018-08-24T11:58:45.787Z,7.2
2018-08-24T11:59:47.820Z,7.2
2018-08-24T12:00:49.436Z,7.3
2018-08-24T12:01:50.897Z,7.3
2018-08-24T12:02:52.348Z,7.3
2018-08-24T12:03:53.990Z,7.3
2018-08-24T12:04:55.620Z,7.3
2018-08-24T12:05:57.076Z,7.3
2018-08-24T12:06:58.524Z,7.3
2018-08-24T12:08:01.390Z,7.3
2018-08-24T12:09:03.090Z,7.3
2018-08-24T12:10:04.699Z,7.3
2018-08-24T12:11:06.131Z,7.3
2018-08-24T12:12:08.125Z,7.3
2018-08-24T12:13:09.824Z,7.3
2018-08-24T12:14:11.952Z,7.3
2018-08-24T12:15:13.441Z,7.3
2018-08-24T12:16:15.060Z,7.3
2018-08-24T12:17:16.676Z,7.4
2018-08-24T12:18:18.477Z,7.4
2018-08-24T12:19:19.994Z,7.4
2018-08-24T12:20:21.624Z,7.4
2018-08-24T12:21:23.986Z,7.4
2018-08-24T12:22:25.536Z,7.4
2018-08-24T12:23:27.157Z,7.4
2018-08-24T12:24:29.357Z,7.4
2018-08-24T12:25:30.983Z,7.4
2018-08-24T12:26:32.425Z,7.4
2018-08-24T12:27:33.882Z,7.4
2018-08-24T12:28:35.347Z,7.4
2018-08-24T12:29:36.945Z,7.4
2018-08-24T12:30:38.239Z,7.4
2018-08-24T12:31:39.349Z,7.4
2018-08-24T12:32:40.966Z,7.4
2018-08-24T12:33:42.415Z,7.4
2018-08-24T12:34:44.364Z,7.4
2018-08-24T12:35:45.872Z,7.5
2018-08-24T12:36:47.154Z,7.5
2018-08-24T12:37:48.620Z,7.5
2018-08-24T12:38:50.059Z,7.5
2018-08-24T12:39:51.665Z,7.5
2018-08-24T12:40:53.268Z,7.5
2018-08-24T12:41:54.893Z,7.5
2018-08-24T12:42:56.361Z,7.6
2018-08-24T12:43:57.998Z,7.6
2018-08-24T12:44:59.643Z,7.6
2018-08-24T12:46:01.274Z,7.6
2018-08-24T12:47:02.541Z,7.6
2018-08-24T12:48:04.148Z,7.6
2018-08-24T12:49:05.754Z,7.7
2018-08-24T12:50:07.358Z,7.7
2018-08-24T12:51:08.871Z,7.7
2018-08-24T12:52:11.054Z,7.7
2018-08-24T12:53:12.747Z,7.7
2018-08-24T12:54:14.366Z,7.8
2018-08-24T12:55:15.980Z,7.8
2018-08-24T12:56:17.611Z,7.8
2018-08-24T12:57:19.211Z,7.8
2018-08-24T12:58:20.668Z,7.8
2018-08-24T12:59:22.274Z,7.8
2018-08-24T13:00:23.746Z,7.8
2018-08-24T13:01:25.370Z,7.8
2018-08-24T13:02:26.811Z,7.8
2018-08-24T13:03:28.442Z,7.8
2018-08-24T13:04:30.075Z,7.8
2018-08-24T13:05:31.534Z,7.8
2018-08-24T13:06:33.184Z,7.8
2018-08-24T13:07:34.811Z,7.8
2018-08-24T13:08:36.752Z,7.8
2018-08-24T13:09:38.222Z,7.8
2018-08-24T13:10:39.663Z,7.8
2018-08-24T13:11:40.948Z,7.8
2018-08-24T13:12:42.594Z,7.8
2018-08-24T13:13:44.041Z,7.8
2018-08-24T13:14:45.652Z,7.8
2018-08-24T13:15:47.114Z,7.8
2018-08-24T13:16:48.753Z,7.8
2018-08-24T13:17:50.079Z,7.8
2018-08-24T13:18:51.713Z,7.8
2018-08-24T13:19:53.171Z,7.8
2018-08-24T13:20:54.812Z,7.8
2018-08-24T13:21:56.284Z,7.8
2018-08-24T13:22:57.735Z,7.8
2018-08-24T13:23:59.197Z,7.8
2018-08-24T13:25:00.665Z,7.8
2018-08-24T13:26:02.125Z,7.8
2018-08-24T13:27:03.757Z,7.8
2018-08-24T13:28:05.038Z,7.8
2018-08-24T13:29:06.477Z,7.8
2018-08-24T13:30:08.129Z,7.8
2018-08-24T13:31:09.588Z,7.8
2018-08-24T13:32:10.864Z,7.8
2018-08-24T13:33:12.313Z,7.8
2018-08-24T13:34:13.776Z,7.8
2018-08-24T13:35:15.083Z,7.8
2018-08-24T13:36:16.542Z,7.8
2018-08-24T13:37:18.163Z,7.7
2018-08-24T13:38:19.760Z,7.6
2018-08-24T13:39:21.369Z,7.6
2018-08-24T13:40:23.014Z,7.5
2018-08-24T13:41:24.664Z,7.4
2018-08-24T13:42:26.287Z,7.3
2018-08-24T13:43:27.926Z,7.2
2018-08-24T13:44:29.612Z,7.2
2018-08-24T13:45:31.233Z,7.2
2018-08-24T13:46:32.683Z,7.2
2018-08-24T13:47:35.194Z,7.2
2018-08-24T13:48:37.038Z,7.2
2018-08-24T13:49:38.650Z,7.2
2018-08-24T13:50:40.281Z,7.2
2018-08-24T13:51:41.907Z,7.2
2018-08-24T13:52:43.382Z,7.2
2018-08-24T13:53:45.953Z,7.2
2018-08-24T13:54:47.851Z,7.2
2018-08-24T13:55:49.322Z,7.2
2018-08-24T13:56:50.953Z,7.2
2018-08-24T13:57:52.617Z,7.2
2018-08-24T13:58:54.085Z,7.2
2018-08-24T13:59:55.952Z,7.2
2018-08-24T14:00:57.621Z,7.2
2018-08-24T14:01:59.256Z,7.2
2018-08-24T14:03:00.703Z,7.2
2018-08-24T14:04:02.159Z,7.2
2018-08-24T14:05:03.797Z,7.2
2018-08-24T14:06:05.280Z,7.2
2018-08-24T14:07:06.923Z,7.2
2018-08-24T14:08:08.375Z,7.2